createdAt,value
2022-12-15T00:02:42.660Z,97244.02
2022-12-15T00:05:35.840Z,97245.02
2022-12-15T00:08:31.796Z,97245.20
2022-12-15T00:11:26.242Z,97247.95
2022-12-15T00:14:16.312Z,97248.89
2022-12-15T00:17:06.708Z,97253.56
2022-12-15T00:20:00.613Z,97256.86
2022-12-15T00:22:51.544Z,97256.52
2022-12-15T00:25:42.561Z,97263.76
2022-12-15T00:28:34.221Z,97267.11
2022-12-15T00:31:26.341Z,97268.92
2022-12-15T00:34:17.315Z,97270.81
2022-12-15T00:37:08.792Z,97274.42
2022-12-15T00:39:42.185Z,97280.36
2022-12-15T00:42:18.904Z,97285.41
2022-12-15T00:44:55.847Z,97288.77
2022-12-15T00:47:29.351Z,97298.16
2022-12-15T00:50:21.433Z,97296.44
2022-12-15T00:53:13.571Z,97296.42
2022-12-15T00:56:07.445Z,97293.71
2022-12-15T00:58:58.047Z,97302.90
2022-12-15T01:01:49.779Z,97309.50
2022-12-15T01:04:41.562Z,97305.50
2022-12-15T01:07:32.876Z,97305.85
2022-12-15T01:10:23.872Z,97309.23
2022-12-15T01:13:14.869Z,97313.56
2022-12-15T01:16:06.083Z,97313.77
2022-12-15T01:18:59.603Z,97314.98
2022-12-15T01:21:35.503Z,97314.64
2022-12-15T01:24:10.057Z,97314.45
2022-12-15T01:26:44.412Z,97309.53
2022-12-15T01:29:17.783Z,97317.02
2022-12-15T01:31:52.813Z,97321.34
2022-12-15T01:34:25.812Z,97319.29
2022-12-15T01:36:59.432Z,97318.97
2022-12-15T01:39:53.521Z,97321.23
2022-12-15T01:42:27.329Z,97329.73
2022-12-15T01:45:29.346Z,97330.27
2022-12-15T01:48:06.036Z,97329.08
2022-12-15T01:50:41.443Z,97336.34
2022-12-15T01:53:15.929Z,97340.33
2022-12-15T01:55:51.240Z,97341.08
2022-12-15T01:58:24.315Z,97339.06
2022-12-15T02:00:57.888Z,97345.14
2022-12-15T02:03:31.977Z,97344.66
2022-12-15T02:06:06.837Z,97348.33
2022-12-15T02:08:43.320Z,97344.48
2022-12-15T02:11:28.397Z,97343.31
2022-12-15T02:14:04.411Z,97350.11
2022-12-15T02:16:43.291Z,97349.11
2022-12-15T02:19:39.086Z,97348.66
2022-12-15T02:22:22.374Z,97354.23
2022-12-15T02:25:12.403Z,97360.24
2022-12-15T02:27:52.182Z,97367.71
2022-12-15T02:30:36.334Z,97372.41
2022-12-15T02:33:14.256Z,97370.02
2022-12-15T02:35:55.983Z,97374.54
2022-12-15T02:38:38.702Z,97378.76
2022-12-15T02:41:41.241Z,97380.39
2022-12-15T02:44:21.716Z,97379.23
2022-12-15T02:47:16.783Z,97390.64
2022-12-15T02:50:05.857Z,97391.52
2022-12-15T02:53:09.384Z,97394.30
2022-12-15T02:55:51.390Z,97398.11
2022-12-15T02:58:33.834Z,97393.45
2022-12-15T03:01:09.889Z,97399.11
2022-12-15T03:03:43.698Z,97402.42
2022-12-15T03:06:16.365Z,97405.55
2022-12-15T03:08:49.525Z,97404.89
2022-12-15T03:11:22.531Z,97401.27
2022-12-15T03:13:56.417Z,97408.59
2022-12-15T03:16:29.592Z,97407.56
2022-12-15T03:19:02.171Z,97409.98
2022-12-15T03:21:36.301Z,97412.70
2022-12-15T03:24:10.045Z,97414.88
2022-12-15T03:26:43.865Z,97418.55
2022-12-15T03:29:16.145Z,97428.99
2022-12-15T03:31:52.244Z,97430.85
2022-12-15T03:34:24.995Z,97429.81
2022-12-15T03:36:59.395Z,97434.14
2022-12-15T03:39:32.414Z,97430.11
2022-12-15T03:42:06.328Z,97435.09
2022-12-15T03:44:38.369Z,97441.68
2022-12-15T03:47:11.049Z,97439.35
2022-12-15T03:49:44.350Z,97445.23
2022-12-15T03:52:17.606Z,97442.56
2022-12-15T03:54:51.258Z,97451.98
2022-12-15T03:57:27.428Z,97457.40
2022-12-15T04:00:01.233Z,97461.35
2022-12-15T04:02:42.393Z,97466.23
2022-12-15T04:05:17.470Z,97468.09
2022-12-15T04:07:50.950Z,97465.98
2022-12-15T04:10:31.745Z,97469.99
2022-12-15T04:13:09.288Z,97471.75
2022-12-15T04:15:43.561Z,97470.98
2022-12-15T04:18:16.706Z,97477.83
2022-12-15T04:20:52.996Z,97477.52
2022-12-15T04:23:26.311Z,97484.21
2022-12-15T04:26:16.153Z,97486.16
2022-12-15T04:29:08.201Z,97492.16
2022-12-15T04:32:04.215Z,97495.23
2022-12-15T04:34:56.778Z,97494.79
2022-12-15T04:37:46.317Z,97504.27
2022-12-15T04:40:37.021Z,97508.28
2022-12-15T04:43:30.115Z,97509.16
2022-12-15T04:46:21.232Z,97514.79
2022-12-15T04:49:14.555Z,97513.59
2022-12-15T04:52:09.596Z,97518.63
2022-12-15T04:55:01.007Z,97526.13
2022-12-15T04:57:52.369Z,97527.63
2022-12-15T05:00:45.084Z,97533.87
2022-12-15T05:03:35.315Z,97539.67
2022-12-15T05:06:28.753Z,97548.02
2022-12-15T05:09:21.184Z,97549.16
2022-12-15T05:12:12.001Z,97553.35
2022-12-15T05:15:07.920Z,97557.59
2022-12-15T05:17:58.891Z,97564.05
2022-12-15T05:20:49.952Z,97563.99
2022-12-15T05:23:40.314Z,97564.72
2022-12-15T05:26:34.002Z,97576.60
2022-12-15T05:29:28.275Z,97593.54
2022-12-15T05:32:00.212Z,97601.45
2022-12-15T05:34:33.643Z,97608.69
2022-12-15T05:37:07.034Z,97608.98
2022-12-15T05:39:38.924Z,97608.36
2022-12-15T05:42:11.632Z,97604.48
2022-12-15T05:44:46.709Z,97608.12
2022-12-15T05:47:19.290Z,97612.60
2022-12-15T05:49:53.352Z,97614.61
2022-12-15T05:52:28.696Z,97617.75
2022-12-15T05:55:06.858Z,97621.35
2022-12-15T05:57:41.410Z,97627.30
2022-12-15T06:00:17.023Z,97638.87
2022-12-15T06:02:52.616Z,97642.33
2022-12-15T06:05:25.005Z,97645.98
2022-12-15T06:07:58.684Z,97654.55
2022-12-15T06:10:31.612Z,97651.50
2022-12-15T06:13:07.345Z,97662.19
2022-12-15T06:15:41.486Z,97674.30
2022-12-15T06:18:15.299Z,97671.58
2022-12-15T06:20:47.658Z,97673.06
2022-12-15T06:23:23.761Z,97682.51
2022-12-15T06:25:58.072Z,97696.52
2022-12-15T06:28:30.171Z,97705.36
2022-12-15T06:31:07.141Z,97704.20
2022-12-15T06:33:40.452Z,97705.91
2022-12-15T06:36:15.240Z,97710.24
2022-12-15T06:38:49.948Z,97716.13
2022-12-15T06:41:24.545Z,97717.36
2022-12-15T06:43:59.538Z,97725.77
2022-12-15T06:46:33.668Z,97729.27
2022-12-15T06:49:06.459Z,97724.34
2022-12-15T06:51:41.968Z,97723.79
2022-12-15T06:54:14.517Z,97726.27
2022-12-15T06:56:47.083Z,97732.84
2022-12-15T06:59:22.968Z,97732.15
2022-12-15T07:01:57.382Z,97739.61
2022-12-15T07:04:31.779Z,97735.27
2022-12-15T07:07:08.283Z,97748.42
2022-12-15T07:09:44.666Z,97755.77
2022-12-15T07:12:18.098Z,97767.36
2022-12-15T07:14:53.516Z,97778.30
2022-12-15T07:17:25.902Z,97792.74
2022-12-15T07:20:00.138Z,97785.67
2022-12-15T07:22:33.603Z,97797.82
2022-12-15T07:25:07.666Z,97806.30
2022-12-15T07:27:39.510Z,97806.00
2022-12-15T07:30:14.854Z,97808.25
2022-12-15T07:32:50.053Z,97807.10
2022-12-15T07:35:23.572Z,97805.30
2022-12-15T07:37:56.246Z,97817.71
2022-12-15T07:40:30.531Z,97823.25
2022-12-15T07:43:04.085Z,97830.88
2022-12-15T07:45:36.348Z,97837.02
2022-12-15T07:48:12.060Z,97828.05
2022-12-15T07:50:44.704Z,97824.68
2022-12-15T07:53:18.010Z,97827.60
2022-12-15T07:56:07.514Z,97833.64
2022-12-15T07:58:42.641Z,97838.72
2022-12-15T08:01:19.977Z,97841.00
2022-12-15T08:03:53.156Z,97841.86
2022-12-15T08:06:26.764Z,97850.00
2022-12-15T08:09:01.258Z,97849.71
2022-12-15T08:11:35.746Z,97851.05
2022-12-15T08:14:15.234Z,97851.89
2022-12-15T08:16:50.302Z,97862.55
2022-12-15T08:19:24.312Z,97869.90
2022-12-15T08:21:57.452Z,97882.16
2022-12-15T08:24:31.392Z,97884.89
2022-12-15T08:27:04.489Z,97892.06
2022-12-15T08:29:53.843Z,97899.09
2022-12-15T08:32:26.946Z,97894.60
2022-12-15T08:35:01.021Z,97899.83
2022-12-15T08:37:37.813Z,97907.93
2022-12-15T08:40:12.810Z,97909.39
2022-12-15T08:42:45.685Z,97911.34
2022-12-15T08:45:18.974Z,97914.34
2022-12-15T08:47:51.301Z,97910.11
2022-12-15T08:50:26.516Z,97912.36
2022-12-15T08:53:28.886Z,97908.73
2022-12-15T08:55:52.501Z,97908.73
2022-12-15T08:58:26.268Z,97906.85
2022-12-15T09:01:05.551Z,97908.70
2022-12-15T09:03:39.082Z,97910.58
2022-12-15T09:06:15.267Z,97913.41
2022-12-15T09:08:50.551Z,97913.70
2022-12-15T09:11:23.581Z,97909.99
2022-12-15T09:13:57.559Z,97916.03
2022-12-15T09:16:31.253Z,97927.06
2022-12-15T09:19:04.508Z,97927.80
2022-12-15T09:21:39.934Z,97922.86
2022-12-15T09:24:24.752Z,97919.23
2022-12-15T09:27:03.856Z,97919.19
2022-12-15T09:29:36.815Z,97923.58
2022-12-15T09:32:14.027Z,97925.27
2022-12-15T09:34:48.952Z,97928.20
2022-12-15T09:37:26.789Z,97934.17
2022-12-15T09:40:01.134Z,97936.11
2022-12-15T09:42:34.448Z,97946.27
2022-12-15T09:45:13.401Z,97947.36
2022-12-15T09:47:52.925Z,97949.98
2022-12-15T09:50:30.808Z,97958.84
2022-12-15T09:53:17.812Z,97958.58
2022-12-15T09:56:13.029Z,97956.20
2022-12-15T09:58:50.625Z,97953.38
2022-12-15T10:01:29.264Z,97949.90
2022-12-15T10:04:08.122Z,97941.93
2022-12-15T10:06:44.674Z,97943.17
2022-12-15T10:09:27.552Z,97951.74
2022-12-15T10:12:03.642Z,97957.11
2022-12-15T10:14:41.973Z,97956.67
2022-12-15T10:17:26.015Z,97957.27
2022-12-15T10:20:04.354Z,97953.88
2022-12-15T10:22:39.566Z,97958.04
2022-12-15T10:25:23.503Z,97961.50
2022-12-15T10:28:26.524Z,97955.19
2022-12-15T10:31:03.888Z,97945.84
2022-12-15T10:33:47.037Z,97944.32
2022-12-15T10:36:22.359Z,97945.52
2022-12-15T10:38:55.468Z,97943.98
2022-12-15T10:41:27.909Z,97941.63
2022-12-15T10:44:03.295Z,97937.33
2022-12-15T10:46:37.717Z,97937.70
2022-12-15T10:52:16.745Z,97932.85
2022-12-15T10:54:51.379Z,97932.37
2022-12-15T10:57:29.149Z,97937.42
2022-12-15T11:00:33.512Z,97943.61
2022-12-15T11:03:24.383Z,97945.95
2022-12-15T11:05:59.250Z,97951.23
2022-12-15T11:08:32.562Z,97954.08
2022-12-15T11:14:24.758Z,97961.88
2022-12-15T11:16:59.300Z,97968.56
2022-12-15T11:19:35.221Z,97970.73
2022-12-15T11:22:17.619Z,97969.44
2022-12-15T11:24:54.032Z,97974.73
2022-12-15T11:27:32.227Z,97978.48
2022-12-15T11:30:14.530Z,97975.67
2022-12-15T11:32:50.902Z,97982.52
2022-12-15T11:35:27.447Z,97992.07
2022-12-15T11:38:04.554Z,97988.70
2022-12-15T11:40:43.550Z,97984.35
2022-12-15T11:43:35.947Z,97982.80
2022-12-15T11:46:23.145Z,97990.67
2022-12-15T11:49:09.529Z,97985.41
2022-12-15T11:51:45.675Z,97985.14
2022-12-15T11:54:25.179Z,97986.38
2022-12-15T11:57:02.601Z,97993.14
2022-12-15T11:59:55.224Z,97997.98
2022-12-15T12:03:01.236Z,98003.16
2022-12-15T12:05:56.224Z,98010.83
2022-12-15T12:08:47.067Z,98006.16
2022-12-15T12:11:29.482Z,98019.23
2022-12-15T12:14:19.882Z,98015.70
2022-12-15T12:16:58.625Z,98018.22
2022-12-15T12:19:38.094Z,98017.75
2022-12-15T12:22:22.548Z,98015.59
2022-12-15T12:25:01.783Z,98007.38
2022-12-15T12:27:39.927Z,98001.33
2022-12-15T12:30:17.442Z,97998.85
2022-12-15T12:32:54.586Z,97991.26
2022-12-15T12:35:35.105Z,97984.94
2022-12-15T12:38:10.557Z,97994.83
2022-12-15T12:41:07.471Z,97999.48
2022-12-15T12:43:43.808Z,98003.78
2022-12-15T12:46:18.884Z,98006.63
2022-12-15T12:48:56.164Z,98009.10
2022-12-15T12:51:31.321Z,98004.14
2022-12-15T12:54:06.116Z,98003.20
2022-12-15T12:56:45.620Z,98006.54
2022-12-15T12:59:39.472Z,98005.76
2022-12-15T13:02:45.580Z,98007.29
2022-12-15T13:05:33.987Z,98024.77
2022-12-15T13:08:37.875Z,98026.33
2022-12-15T13:11:41.982Z,98008.55
2022-12-15T13:14:25.628Z,98014.86
2022-12-15T13:20:27.096Z,98011.12
2022-12-15T13:23:37.537Z,98013.81
2022-12-15T13:26:17.439Z,98018.69
2022-12-15T13:28:53.052Z,98014.90
2022-12-15T13:31:33.657Z,98011.46
2022-12-15T13:34:22.758Z,98011.74
2022-12-15T13:37:04.274Z,98011.29
2022-12-15T13:42:57.883Z,98010.75
2022-12-15T13:45:51.100Z,98016.71
2022-12-15T13:48:38.317Z,98022.48
2022-12-15T13:51:22.777Z,98031.82
2022-12-15T13:54:01.468Z,98046.38
2022-12-15T13:56:52.507Z,98052.02
2022-12-15T13:59:30.885Z,98052.34
2022-12-15T14:02:03.750Z,98055.11
2022-12-15T14:04:36.609Z,98059.33
2022-12-15T14:07:08.935Z,98065.38
2022-12-15T14:09:43.668Z,98072.58
2022-12-15T14:12:16.584Z,98079.56
2022-12-15T14:14:49.620Z,98079.81
2022-12-15T14:17:21.785Z,98083.22
2022-12-15T14:19:54.217Z,98081.01
2022-12-15T14:22:29.623Z,98081.22
2022-12-15T14:25:16.201Z,98086.23
2022-12-15T14:27:51.051Z,98092.02
2022-12-15T14:30:28.376Z,98102.42
2022-12-15T14:33:03.434Z,98111.44
2022-12-15T14:35:39.034Z,98123.90
2022-12-15T14:38:16.448Z,98124.77
2022-12-15T14:40:49.892Z,98123.45
2022-12-15T14:43:25.174Z,98118.92
2022-12-15T14:46:06.551Z,98116.98
2022-12-15T14:48:44.378Z,98110.32
2022-12-15T14:51:18.146Z,98116.66
2022-12-15T14:53:53.743Z,98117.20
2022-12-15T14:56:32.127Z,98129.13
2022-12-15T14:59:06.389Z,98136.00
2022-12-15T15:01:57.920Z,98125.89
2022-12-15T15:03:11.751Z,97960.77
2022-12-15T15:04:33.857Z,98126.06
2022-12-15T15:07:08.608Z,98127.67
2022-12-15T15:09:43.367Z,98129.62
2022-12-15T15:12:18.649Z,98122.45
2022-12-15T15:14:53.140Z,98129.80
2022-12-15T15:17:27.368Z,98129.14
2022-12-15T15:20:03.893Z,98132.88
2022-12-15T15:22:40.969Z,98134.56
2022-12-15T15:25:41.315Z,98122.09
2022-12-15T15:28:21.938Z,98128.66
2022-12-15T15:30:56.263Z,98137.44
2022-12-15T15:33:29.351Z,98139.31
2022-12-15T15:36:05.387Z,98146.39
2022-12-15T15:38:39.481Z,98149.84
2022-12-15T15:41:19.533Z,98151.90
2022-12-15T15:43:51.982Z,98155.50
2022-12-15T15:46:25.954Z,98150.71
2022-12-15T15:48:59.754Z,98149.72
2022-12-15T15:51:32.923Z,98144.34
2022-12-15T15:54:06.782Z,98133.41
2022-12-15T15:56:39.250Z,98126.77
2022-12-15T15:59:14.553Z,98134.59
2022-12-15T16:01:47.907Z,98145.67
2022-12-15T16:04:20.245Z,98132.41
2022-12-15T16:06:52.411Z,98120.55
2022-12-15T16:09:25.400Z,98110.38
2022-12-15T16:11:57.892Z,98104.77
2022-12-15T16:14:30.390Z,98096.97
2022-12-15T16:17:02.679Z,98092.36
2022-12-15T16:19:39.586Z,98086.83
2022-12-15T16:22:16.488Z,98088.17
2022-12-15T16:24:48.912Z,98094.27
2022-12-15T16:27:21.257Z,98094.11
2022-12-15T16:29:53.420Z,98091.05
2022-12-15T16:32:25.497Z,98085.86
2022-12-15T16:34:58.887Z,98088.40
2022-12-15T16:37:36.205Z,98096.86
2022-12-15T16:40:20.236Z,98110.97
2022-12-15T16:43:00.089Z,98111.95
2022-12-15T16:45:33.262Z,98114.70
2022-12-15T16:48:05.678Z,98118.74
2022-12-15T16:50:39.611Z,98114.75
2022-12-15T16:53:17.620Z,98112.77
2022-12-15T16:55:51.854Z,98113.54
2022-12-15T16:58:25.214Z,98113.41
2022-12-15T17:00:57.296Z,98122.92
2022-12-15T17:03:29.592Z,98126.52
2022-12-15T17:06:04.208Z,98129.08
2022-12-15T17:08:41.414Z,98129.30
2022-12-15T17:11:18.673Z,98135.96
2022-12-15T17:13:51.864Z,98136.27
2022-12-15T17:16:25.732Z,98137.70
2022-12-15T17:18:58.374Z,98135.20
2022-12-15T17:21:33.002Z,98138.50
2022-12-15T17:24:07.971Z,98144.08
2022-12-15T17:26:40.948Z,98149.16
2022-12-15T17:29:18.056Z,98147.44
2022-12-15T17:31:50.142Z,98140.52
2022-12-15T17:34:32.573Z,98130.80
2022-12-15T17:37:06.349Z,98125.02
2022-12-15T17:39:38.905Z,98114.70
2022-12-15T17:42:19.648Z,98115.67
2022-12-15T17:44:52.284Z,98113.91
2022-12-15T17:47:28.000Z,98111.80
2022-12-15T17:50:00.212Z,98112.46
2022-12-15T17:52:34.558Z,98107.31
2022-12-15T17:55:18.055Z,98106.17
2022-12-15T17:57:50.364Z,98109.56
2022-12-15T18:00:26.300Z,98111.38
2022-12-15T18:02:59.465Z,98114.45
2022-12-15T18:05:32.685Z,98118.30
2022-12-15T18:08:08.406Z,98121.08
2022-12-15T18:10:41.367Z,98121.52
2022-12-15T18:13:20.092Z,98121.09
2022-12-15T18:15:52.481Z,98126.48
2022-12-15T18:18:25.236Z,98125.29
2022-12-15T18:21:00.330Z,98128.30
2022-12-15T18:23:33.476Z,98130.35
2022-12-15T18:26:08.329Z,98129.86
2022-12-15T18:28:40.275Z,98131.56
2022-12-15T18:31:18.961Z,98131.89
2022-12-15T18:33:51.361Z,98132.83
2022-12-15T18:36:24.111Z,98132.30
2022-12-15T18:38:56.050Z,98130.42
2022-12-15T18:41:28.028Z,98137.43
2022-12-15T18:44:00.062Z,98141.01
2022-12-15T18:46:32.120Z,98148.21
2022-12-15T18:49:09.279Z,98149.68
2022-12-15T18:51:42.001Z,98153.20
2022-12-15T18:54:18.328Z,98153.09
2022-12-15T18:56:50.473Z,98153.03
2022-12-15T18:59:24.247Z,98145.88
2022-12-15T19:01:56.406Z,98143.75
2022-12-15T19:04:28.483Z,98146.80
2022-12-15T19:07:06.697Z,98145.86
2022-12-15T19:09:38.718Z,98142.16
2022-12-15T19:12:19.088Z,98135.56
2022-12-15T19:14:52.772Z,98127.02
2022-12-15T19:17:45.047Z,98126.93
2022-12-15T19:20:38.172Z,98120.46
2022-12-15T19:23:10.984Z,98116.34
2022-12-15T19:25:43.390Z,98108.83
2022-12-15T19:28:17.661Z,98106.64
2022-12-15T19:30:49.595Z,98109.10
2022-12-15T19:33:25.319Z,98104.17
2022-12-15T19:35:57.569Z,98097.61
2022-12-15T19:38:31.855Z,98105.05
2022-12-15T19:41:03.887Z,98110.84
2022-12-15T19:43:36.349Z,98114.87
2022-12-15T19:46:09.961Z,98109.09
2022-12-15T19:48:43.777Z,98109.67
2022-12-15T19:51:17.145Z,98105.89
2022-12-15T19:53:50.240Z,98110.05
2022-12-15T19:56:24.172Z,98106.80
2022-12-15T19:58:56.881Z,98106.11
2022-12-15T20:01:32.252Z,98106.43
2022-12-15T20:04:05.228Z,98102.09
2022-12-15T20:06:38.589Z,98101.21
2022-12-15T20:09:13.087Z,98103.03
2022-12-15T20:11:46.278Z,98106.40
2022-12-15T20:14:20.033Z,98110.27
2022-12-15T20:16:52.956Z,98111.85
2022-12-15T20:19:25.855Z,98111.14
2022-12-15T20:21:58.355Z,98107.52
2022-12-15T20:24:31.804Z,98105.84
2022-12-15T20:27:10.185Z,98103.83
2022-12-15T20:29:44.631Z,98099.43
2022-12-15T20:32:19.586Z,98101.73
2022-12-15T20:34:51.831Z,98106.19
2022-12-15T20:37:27.008Z,98103.70
2022-12-15T20:40:00.504Z,98097.39
2022-12-15T20:42:33.542Z,98094.82
2022-12-15T20:49:08.207Z,98083.49
2022-12-15T20:51:42.888Z,98079.98
2022-12-15T20:54:18.514Z,98076.80
2022-12-15T20:56:52.867Z,98073.59
2022-12-15T20:59:26.551Z,98067.91
2022-12-15T21:02:01.018Z,98063.41
2022-12-15T21:04:34.848Z,98061.63
2022-12-15T21:07:10.983Z,98061.45
2022-12-15T21:09:44.566Z,98059.52
2022-12-15T21:12:21.363Z,98058.15
2022-12-15T21:14:54.879Z,98061.17
2022-12-15T21:17:29.886Z,98057.85
2022-12-15T21:20:05.887Z,98048.79
2022-12-15T21:22:38.929Z,98045.79
2022-12-15T21:25:24.509Z,98041.35
2022-12-15T21:27:57.358Z,98043.38
2022-12-15T21:30:33.588Z,98037.67
2022-12-15T21:33:06.212Z,98035.44
2022-12-15T21:35:40.181Z,98032.72
2022-12-15T21:38:27.979Z,98035.80
2022-12-15T21:41:02.253Z,98041.34
2022-12-15T21:43:39.883Z,98038.09
2022-12-15T21:46:17.297Z,98033.86
2022-12-15T21:49:08.645Z,98037.33
2022-12-15T21:51:43.881Z,98030.20
2022-12-15T21:54:26.028Z,98030.69
2022-12-15T21:57:09.134Z,98031.58
2022-12-15T21:59:42.997Z,98028.70
2022-12-15T22:02:27.039Z,98025.45
2022-12-15T22:05:00.231Z,98026.37
2022-12-15T22:07:35.410Z,98019.86
2022-12-15T22:10:09.462Z,98016.70
2022-12-15T22:12:43.896Z,98017.69
2022-12-15T22:15:22.131Z,98017.47
2022-12-15T22:17:55.922Z,98021.06
2022-12-15T22:20:51.646Z,98020.62
2022-12-15T22:49:37.927Z,97996.35
2022-12-15T22:52:17.584Z,97988.54
2022-12-15T22:54:50.714Z,97989.98
2022-12-15T22:57:27.052Z,97987.44
2022-12-15T23:00:05.714Z,97981.47
2022-12-15T23:02:41.985Z,97978.90
2022-12-15T23:05:16.919Z,97976.57
2022-12-15T23:07:51.387Z,97973.08
2022-12-15T23:10:42.181Z,97969.05
2022-12-15T23:13:14.521Z,97970.22
2022-12-15T23:16:04.042Z,97970.81
2022-12-15T23:18:37.341Z,97966.11
2022-12-15T23:21:10.541Z,97947.80
2022-12-15T23:23:43.642Z,97944.16
2022-12-15T23:26:16.466Z,97949.41
2022-12-15T23:28:53.088Z,97942.85
2022-12-15T23:31:28.549Z,97940.94
2022-12-15T23:34:02.222Z,97936.44
2022-12-15T23:36:34.798Z,97922.63
2022-12-15T23:39:10.382Z,97914.02
2022-12-15T23:41:45.894Z,97917.11
2022-12-15T23:44:18.811Z,97919.91
2022-12-15T23:46:50.975Z,97920.15
2022-12-15T23:49:23.741Z,97918.49
2022-12-15T23:51:57.624Z,97921.41
2022-12-15T23:54:31.206Z,97923.63
2022-12-15T23:57:04.785Z,97913.07
2022-12-15T23:59:38.078Z,97917.14
